sensor_id;sensor_type;location;lat;lon;timestamp;temperature;humidity
6538;DHT22;3302;52.508;13.454;2022-10-16T00:01:21;14.60;99.90
6538;DHT22;3302;52.508;13.454;2022-10-16T00:03:48;14.70;99.90
6538;DHT22;3302;52.508;13.454;2022-10-16T00:06:15;14.80;99.90
6538;DHT22;3302;52.508;13.454;2022-10-16T00:08:42;14.80;99.90
6538;DHT22;3302;52.508;13.454;2022-10-16T00:11:15;14.80;99.90
6538;DHT22;3302;52.508;13.454;2022-10-16T00:13:42;14.90;99.90
6538;DHT22;3302;52.508;13.454;2022-10-16T00:16:11;14.90;99.90
6538;DHT22;3302;52.508;13.454;2022-10-16T00:18:38;14.90;99.90
6538;DHT22;3302;52.508;13.454;2022-10-16T00:21:09;14.90;99.90
6538;DHT22;3302;52.508;13.454;2022-10-16T00:23:35;14.90;99.90
6538;DHT22;3302;52.508;13.454;2022-10-16T00:26:05;14.90;99.90
6538;DHT22;3302;52.508;13.454;2022-10-16T00:28:31;15.00;99.90
6538;DHT22;3302;52.508;13.454;2022-10-16T00:30:57;15.00;99.90
6538;DHT22;3302;52.508;13.454;2022-10-16T00:33:23;15.00;99.90
6538;DHT22;3302;52.508;13.454;2022-10-16T00:35:49;15.00;99.90
6538;DHT22;3302;52.508;13.454;2022-10-16T00:38:15;15.00;99.90
6538;DHT22;3302;52.508;13.454;2022-10-16T00:40:41;15.00;99.90
6538;DHT22;3302;52.508;13.454;2022-10-16T00:46:22;15.10;99.90
6538;DHT22;3302;52.508;13.454;2022-10-16T00:51:26;15.10;99.90
6538;DHT22;3302;52.508;13.454;2022-10-16T00:53:52;15.20;99.90
6538;DHT22;3302;52.508;13.454;2022-10-16T00:56:18;15.20;99.90
6538;DHT22;3302;52.508;13.454;2022-10-16T00:58:44;15.20;99.90
6538;DHT22;3302;52.508;13.454;2022-10-16T01:01:10;15.20;99.90
6538;DHT22;3302;52.508;13.454;2022-10-16T01:03:36;15.20;99.90
6538;DHT22;3302;52.508;13.454;2022-10-16T01:06:14;15.20;99.90
6538;DHT22;3302;52.508;13.454;2022-10-16T01:08:53;15.20;99.90
6538;DHT22;3302;52.508;13.454;2022-10-16T01:14:32;15.20;99.90
6538;DHT22;3302;52.508;13.454;2022-10-16T01:17:09;15.20;99.90
6538;DHT22;3302;52.508;13.454;2022-10-16T01:25:18;15.20;99.90
6538;DHT22;3302;52.508;13.454;2022-10-16T01:27:45;15.20;99.90
6538;DHT22;3302;52.508;13.454;2022-10-16T01:30:29;15.20;99.90
6538;DHT22;3302;52.508;13.454;2022-10-16T01:33:03;15.20;99.90
6538;DHT22;3302;52.508;13.454;2022-10-16T01:35:43;15.20;99.90
6538;DHT22;3302;52.508;13.454;2022-10-16T01:38:38;15.20;99.90
6538;DHT22;3302;52.508;13.454;2022-10-16T01:41:10;15.20;99.90
6538;DHT22;3302;52.508;13.454;2022-10-16T01:43:50;15.30;99.90
6538;DHT22;3302;52.508;13.454;2022-10-16T01:46:20;15.30;99.90
6538;DHT22;3302;52.508;13.454;2022-10-16T01:48:48;15.20;99.90
6538;DHT22;3302;52.508;13.454;2022-10-16T01:51:16;15.20;99.90
6538;DHT22;3302;52.508;13.454;2022-10-16T01:53:46;15.20;99.90
6538;DHT22;3302;52.508;13.454;2022-10-16T01:56:15;15.20;99.90
6538;DHT22;3302;52.508;13.454;2022-10-16T01:58:46;15.20;99.90
6538;DHT22;3302;52.508;13.454;2022-10-16T02:01:15;15.20;99.90
6538;DHT22;3302;52.508;13.454;2022-10-16T02:03:43;15.20;99.90
6538;DHT22;3302;52.508;13.454;2022-10-16T02:06:09;15.20;99.90
6538;DHT22;3302;52.508;13.454;2022-10-16T02:08:35;15.20;99.90
6538;DHT22;3302;52.508;13.454;2022-10-16T02:11:02;15.20;99.90
6538;DHT22;3302;52.508;13.454;2022-10-16T02:13:36;15.20;99.90
6538;DHT22;3302;52.508;13.454;2022-10-16T02:16:03;15.20;99.90
6538;DHT22;3302;52.508;13.454;2022-10-16T02:18:29;15.20;99.90
6538;DHT22;3302;52.508;13.454;2022-10-16T02:23:51;15.20;99.90
6538;DHT22;3302;52.508;13.454;2022-10-16T02:26:36;15.30;99.90
6538;DHT22;3302;52.508;13.454;2022-10-16T02:29:10;15.30;99.90
6538;DHT22;3302;52.508;13.454;2022-10-16T02:31:40;15.30;99.90
6538;DHT22;3302;52.508;13.454;2022-10-16T02:34:07;15.30;99.90
6538;DHT22;3302;52.508;13.454;2022-10-16T02:36:34;15.30;99.90
6538;DHT22;3302;52.508;13.454;2022-10-16T02:39:01;15.30;99.90
6538;DHT22;3302;52.508;13.454;2022-10-16T02:41:30;15.30;99.90
6538;DHT22;3302;52.508;13.454;2022-10-16T02:43:56;15.30;99.90
6538;DHT22;3302;52.508;13.454;2022-10-16T02:46:21;15.40;99.90
6538;DHT22;3302;52.508;13.454;2022-10-16T02:48:47;15.30;99.90
6538;DHT22;3302;52.508;13.454;2022-10-16T02:51:13;15.30;99.90
6538;DHT22;3302;52.508;13.454;2022-10-16T02:53:39;15.30;99.90
6538;DHT22;3302;52.508;13.454;2022-10-16T02:56:05;15.30;99.90
6538;DHT22;3302;52.508;13.454;2022-10-16T02:58:30;15.40;99.90
6538;DHT22;3302;52.508;13.454;2022-10-16T03:00:56;15.40;99.90
6538;DHT22;3302;52.508;13.454;2022-10-16T03:03:22;15.40;99.90
6538;DHT22;3302;52.508;13.454;2022-10-16T03:05:48;15.40;99.90
6538;DHT22;3302;52.508;13.454;2022-10-16T03:08:13;15.40;99.90
6538;DHT22;3302;52.508;13.454;2022-10-16T03:10:39;15.40;99.90
6538;DHT22;3302;52.508;13.454;2022-10-16T03:13:05;15.30;99.90
6538;DHT22;3302;52.508;13.454;2022-10-16T03:15:31;15.30;99.90
6538;DHT22;3302;52.508;13.454;2022-10-16T03:18:00;15.30;99.90
6538;DHT22;3302;52.508;13.454;2022-10-16T03:20:26;15.30;99.90
6538;DHT22;3302;52.508;13.454;2022-10-16T03:22:52;15.30;99.90
6538;DHT22;3302;52.508;13.454;2022-10-16T03:25:18;15.30;99.90
6538;DHT22;3302;52.508;13.454;2022-10-16T03:27:44;15.30;99.90
6538;DHT22;3302;52.508;13.454;2022-10-16T03:30:10;15.30;99.90
6538;DHT22;3302;52.508;13.454;2022-10-16T03:32:36;15.30;99.90
6538;DHT22;3302;52.508;13.454;2022-10-16T03:35:02;15.20;99.90
6538;DHT22;3302;52.508;13.454;2022-10-16T03:37:27;15.20;99.90
6538;DHT22;3302;52.508;13.454;2022-10-16T03:39:53;15.20;99.90
6538;DHT22;3302;52.508;13.454;2022-10-16T03:42:19;15.20;99.90
6538;DHT22;3302;52.508;13.454;2022-10-16T03:44:44;15.20;99.90
6538;DHT22;3302;52.508;13.454;2022-10-16T03:47:10;15.10;99.90
6538;DHT22;3302;52.508;13.454;2022-10-16T03:49:36;15.10;99.90
6538;DHT22;3302;52.508;13.454;2022-10-16T03:52:02;15.10;99.90
6538;DHT22;3302;52.508;13.454;2022-10-16T03:54:27;15.00;99.90
6538;DHT22;3302;52.508;13.454;2022-10-16T03:56:53;15.00;99.90
6538;DHT22;3302;52.508;13.454;2022-10-16T03:59:19;15.00;99.90
6538;DHT22;3302;52.508;13.454;2022-10-16T04:01:44;15.00;99.90
6538;DHT22;3302;52.508;13.454;2022-10-16T04:04:10;15.00;99.90
6538;DHT22;3302;52.508;13.454;2022-10-16T04:06:36;15.00;99.90
6538;DHT22;3302;52.508;13.454;2022-10-16T04:09:02;15.00;99.90
6538;DHT22;3302;52.508;13.454;2022-10-16T04:11:28;14.90;99.90
6538;DHT22;3302;52.508;13.454;2022-10-16T04:13:54;14.90;99.90
6538;DHT22;3302;52.508;13.454;2022-10-16T04:16:19;14.90;99.90
6538;DHT22;3302;52.508;13.454;2022-10-16T04:18:45;14.90;99.90
6538;DHT22;3302;52.508;13.454;2022-10-16T04:21:11;14.90;99.90
6538;DHT22;3302;52.508;13.454;2022-10-16T04:23:37;14.90;99.90
6538;DHT22;3302;52.508;13.454;2022-10-16T04:26:03;14.90;99.90
6538;DHT22;3302;52.508;13.454;2022-10-16T04:28:29;14.90;99.90
6538;DHT22;3302;52.508;13.454;2022-10-16T04:30:54;14.90;99.90
6538;DHT22;3302;52.508;13.454;2022-10-16T04:33:20;14.80;99.90
6538;DHT22;3302;52.508;13.454;2022-10-16T04:35:46;14.80;99.90
6538;DHT22;3302;52.508;13.454;2022-10-16T04:38:12;14.80;99.90
6538;DHT22;3302;52.508;13.454;2022-10-16T04:40:38;14.70;99.90
6538;DHT22;3302;52.508;13.454;2022-10-16T04:43:04;14.80;99.90
6538;DHT22;3302;52.508;13.454;2022-10-16T04:45:30;14.80;99.90
6538;DHT22;3302;52.508;13.454;2022-10-16T04:47:59;14.80;99.90
6538;DHT22;3302;52.508;13.454;2022-10-16T04:50:25;14.70;99.90
6538;DHT22;3302;52.508;13.454;2022-10-16T04:52:51;14.70;99.90
6538;DHT22;3302;52.508;13.454;2022-10-16T04:55:17;14.70;99.90
6538;DHT22;3302;52.508;13.454;2022-10-16T04:57:42;14.70;99.90
6538;DHT22;3302;52.508;13.454;2022-10-16T05:00:08;14.70;99.90
6538;DHT22;3302;52.508;13.454;2022-10-16T05:02:34;14.60;99.90
6538;DHT22;3302;52.508;13.454;2022-10-16T05:05:00;14.50;99.90
6538;DHT22;3302;52.508;13.454;2022-10-16T05:07:26;14.50;99.90
6538;DHT22;3302;52.508;13.454;2022-10-16T05:09:52;14.40;99.90
6538;DHT22;3302;52.508;13.454;2022-10-16T05:12:18;14.40;99.90
6538;DHT22;3302;52.508;13.454;2022-10-16T05:14:44;14.30;99.90
6538;DHT22;3302;52.508;13.454;2022-10-16T05:17:10;14.30;99.90
6538;DHT22;3302;52.508;13.454;2022-10-16T05:19:35;14.30;99.90
6538;DHT22;3302;52.508;13.454;2022-10-16T05:22:01;14.30;99.90
6538;DHT22;3302;52.508;13.454;2022-10-16T05:24:27;14.30;99.90
6538;DHT22;3302;52.508;13.454;2022-10-16T05:26:53;14.30;99.90
6538;DHT22;3302;52.508;13.454;2022-10-16T05:29:19;14.20;99.90
6538;DHT22;3302;52.508;13.454;2022-10-16T05:31:45;14.20;99.90
6538;DHT22;3302;52.508;13.454;2022-10-16T05:34:10;14.20;99.90
6538;DHT22;3302;52.508;13.454;2022-10-16T05:36:36;14.20;99.90
6538;DHT22;3302;52.508;13.454;2022-10-16T05:39:02;14.20;99.90
6538;DHT22;3302;52.508;13.454;2022-10-16T05:41:28;14.20;99.90
6538;DHT22;3302;52.508;13.454;2022-10-16T05:43:54;14.20;99.90
6538;DHT22;3302;52.508;13.454;2022-10-16T05:46:20;14.20;99.90
6538;DHT22;3302;52.508;13.454;2022-10-16T05:48:45;14.20;99.90
6538;DHT22;3302;52.508;13.454;2022-10-16T05:51:13;14.10;99.90
6538;DHT22;3302;52.508;13.454;2022-10-16T05:53:40;14.20;99.90
6538;DHT22;3302;52.508;13.454;2022-10-16T05:56:07;14.20;99.90
6538;DHT22;3302;52.508;13.454;2022-10-16T05:58:36;14.20;99.90
6538;DHT22;3302;52.508;13.454;2022-10-16T06:01:13;14.20;99.90
6538;DHT22;3302;52.508;13.454;2022-10-16T06:03:39;14.20;99.90
6538;DHT22;3302;52.508;13.454;2022-10-16T06:06:13;14.10;99.90
6538;DHT22;3302;52.508;13.454;2022-10-16T06:08:41;14.20;99.90
6538;DHT22;3302;52.508;13.454;2022-10-16T06:11:09;14.10;99.90
6538;DHT22;3302;52.508;13.454;2022-10-16T06:13:36;14.20;99.90
6538;DHT22;3302;52.508;13.454;2022-10-16T06:16:03;14.10;99.90
6538;DHT22;3302;52.508;13.454;2022-10-16T06:18:29;14.20;99.90
6538;DHT22;3302;52.508;13.454;2022-10-16T06:20:56;14.20;99.90
6538;DHT22;3302;52.508;13.454;2022-10-16T06:23:23;14.20;99.90
6538;DHT22;3302;52.508;13.454;2022-10-16T06:25:48;14.20;99.90
6538;DHT22;3302;52.508;13.454;2022-10-16T06:28:15;14.30;99.90
6538;DHT22;3302;52.508;13.454;2022-10-16T06:30:41;14.30;99.90
6538;DHT22;3302;52.508;13.454;2022-10-16T06:33:10;14.30;99.90
6538;DHT22;3302;52.508;13.454;2022-10-16T06:35:36;14.30;99.90
6538;DHT22;3302;52.508;13.454;2022-10-16T06:38:02;14.40;99.90
6538;DHT22;3302;52.508;13.454;2022-10-16T06:40:27;14.40;99.90
6538;DHT22;3302;52.508;13.454;2022-10-16T06:42:55;14.40;99.90
6538;DHT22;3302;52.508;13.454;2022-10-16T06:45:20;14.40;99.90
6538;DHT22;3302;52.508;13.454;2022-10-16T06:47:46;14.40;99.90
6538;DHT22;3302;52.508;13.454;2022-10-16T06:50:12;14.50;99.90
6538;DHT22;3302;52.508;13.454;2022-10-16T06:52:38;14.50;99.90
6538;DHT22;3302;52.508;13.454;2022-10-16T06:55:04;14.50;99.90
6538;DHT22;3302;52.508;13.454;2022-10-16T06:57:30;14.50;99.90
6538;DHT22;3302;52.508;13.454;2022-10-16T06:59:55;14.50;99.90
6538;DHT22;3302;52.508;13.454;2022-10-16T07:02:21;14.50;99.90
6538;DHT22;3302;52.508;13.454;2022-10-16T07:04:47;14.60;99.90
6538;DHT22;3302;52.508;13.454;2022-10-16T07:07:12;14.60;99.90
6538;DHT22;3302;52.508;13.454;2022-10-16T07:09:38;14.70;99.90
6538;DHT22;3302;52.508;13.454;2022-10-16T07:12:05;14.70;99.90
6538;DHT22;3302;52.508;13.454;2022-10-16T07:14:31;14.80;99.90
6538;DHT22;3302;52.508;13.454;2022-10-16T07:16:56;14.80;99.90
6538;DHT22;3302;52.508;13.454;2022-10-16T07:19:22;14.90;99.90
6538;DHT22;3302;52.508;13.454;2022-10-16T07:21:48;14.90;99.90
6538;DHT22;3302;52.508;13.454;2022-10-16T07:24:15;15.00;99.90
6538;DHT22;3302;52.508;13.454;2022-10-16T07:26:43;15.10;99.90
6538;DHT22;3302;52.508;13.454;2022-10-16T07:29:19;15.10;99.90
6538;DHT22;3302;52.508;13.454;2022-10-16T07:31:45;15.20;99.90
6538;DHT22;3302;52.508;13.454;2022-10-16T07:34:13;15.20;99.90
6538;DHT22;3302;52.508;13.454;2022-10-16T07:36:39;15.30;99.90
6538;DHT22;3302;52.508;13.454;2022-10-16T07:39:05;15.30;99.90
6538;DHT22;3302;52.508;13.454;2022-10-16T07:41:31;15.50;99.90
6538;DHT22;3302;52.508;13.454;2022-10-16T07:43:58;15.50;99.90
6538;DHT22;3302;52.508;13.454;2022-10-16T07:46:27;15.50;99.90
6538;DHT22;3302;52.508;13.454;2022-10-16T07:48:53;15.60;99.90
6538;DHT22;3302;52.508;13.454;2022-10-16T07:51:21;15.60;99.90
6538;DHT22;3302;52.508;13.454;2022-10-16T07:53:47;15.60;99.90
6538;DHT22;3302;52.508;13.454;2022-10-16T07:56:13;15.70;99.90
6538;DHT22;3302;52.508;13.454;2022-10-16T07:58:39;15.70;99.90
6538;DHT22;3302;52.508;13.454;2022-10-16T08:01:07;15.70;99.90
6538;DHT22;3302;52.508;13.454;2022-10-16T08:03:33;15.70;99.90
6538;DHT22;3302;52.508;13.454;2022-10-16T08:05:59;15.80;99.90
6538;DHT22;3302;52.508;13.454;2022-10-16T08:08:26;15.90;99.90
6538;DHT22;3302;52.508;13.454;2022-10-16T08:10:52;16.00;99.90
6538;DHT22;3302;52.508;13.454;2022-10-16T08:13:18;16.00;99.90
6538;DHT22;3302;52.508;13.454;2022-10-16T08:15:44;16.10;99.90
6538;DHT22;3302;52.508;13.454;2022-10-16T08:18:12;16.10;99.90
6538;DHT22;3302;52.508;13.454;2022-10-16T08:20:41;16.10;99.90
6538;DHT22;3302;52.508;13.454;2022-10-16T08:23:09;16.10;99.90
6538;DHT22;3302;52.508;13.454;2022-10-16T08:25:36;16.10;99.90
6538;DHT22;3302;52.508;13.454;2022-10-16T08:28:06;16.20;99.90
6538;DHT22;3302;52.508;13.454;2022-10-16T08:30:33;16.20;99.90
6538;DHT22;3302;52.508;13.454;2022-10-16T08:33:00;16.30;99.90
6538;DHT22;3302;52.508;13.454;2022-10-16T08:35:26;16.30;99.90
6538;DHT22;3302;52.508;13.454;2022-10-16T08:37:51;16.30;99.90
6538;DHT22;3302;52.508;13.454;2022-10-16T08:40:24;16.30;99.90
6538;DHT22;3302;52.508;13.454;2022-10-16T08:51:29;16.40;99.90
6538;DHT22;3302;52.508;13.454;2022-10-16T08:54:12;16.50;99.90
6538;DHT22;3302;52.508;13.454;2022-10-16T08:56:39;16.50;99.90
6538;DHT22;3302;52.508;13.454;2022-10-16T08:59:10;16.50;99.90
6538;DHT22;3302;52.508;13.454;2022-10-16T09:01:47;16.50;99.90
6538;DHT22;3302;52.508;13.454;2022-10-16T09:04:41;16.50;99.90
6538;DHT22;3302;52.508;13.454;2022-10-16T09:07:19;16.50;99.90
6538;DHT22;3302;52.508;13.454;2022-10-16T09:15:44;16.80;99.90
6538;DHT22;3302;52.508;13.454;2022-10-16T09:18:33;16.90;99.90
6538;DHT22;3302;52.508;13.454;2022-10-16T09:21:19;16.90;99.90
6538;DHT22;3302;52.508;13.454;2022-10-16T09:23:47;16.90;99.90
6538;DHT22;3302;52.508;13.454;2022-10-16T09:26:14;16.90;99.90
6538;DHT22;3302;52.508;13.454;2022-10-16T09:28:41;16.90;99.90
6538;DHT22;3302;52.508;13.454;2022-10-16T09:31:17;16.90;99.90
6538;DHT22;3302;52.508;13.454;2022-10-16T09:33:45;17.00;99.90
6538;DHT22;3302;52.508;13.454;2022-10-16T09:36:13;17.20;99.90
6538;DHT22;3302;52.508;13.454;2022-10-16T09:38:39;17.20;99.90
6538;DHT22;3302;52.508;13.454;2022-10-16T09:41:23;17.10;99.90
6538;DHT22;3302;52.508;13.454;2022-10-16T09:44:01;17.10;99.90
6538;DHT22;3302;52.508;13.454;2022-10-16T09:46:34;17.20;99.90
6538;DHT22;3302;52.508;13.454;2022-10-16T09:49:02;17.30;99.90
6538;DHT22;3302;52.508;13.454;2022-10-16T09:51:29;17.50;99.90
6538;DHT22;3302;52.508;13.454;2022-10-16T09:56:29;17.30;99.90
6538;DHT22;3302;52.508;13.454;2022-10-16T09:58:58;17.30;99.90
6538;DHT22;3302;52.508;13.454;2022-10-16T10:01:39;17.40;99.90
6538;DHT22;3302;52.508;13.454;2022-10-16T10:04:06;17.40;99.90
6538;DHT22;3302;52.508;13.454;2022-10-16T10:06:45;17.60;99.90
6538;DHT22;3302;52.508;13.454;2022-10-16T10:09:25;17.70;99.90
6538;DHT22;3302;52.508;13.454;2022-10-16T10:19:58;17.70;99.90
6538;DHT22;3302;52.508;13.454;2022-10-16T10:30:55;17.80;99.90
6538;DHT22;3302;52.508;13.454;2022-10-16T10:33:28;17.80;99.90
6538;DHT22;3302;52.508;13.454;2022-10-16T10:38:46;17.90;99.90
6538;DHT22;3302;52.508;13.454;2022-10-16T10:47:34;18.00;99.90
6538;DHT22;3302;52.508;13.454;2022-10-16T10:52:58;18.20;99.90
6538;DHT22;3302;52.508;13.454;2022-10-16T11:01:06;18.20;99.90
6538;DHT22;3302;52.508;13.454;2022-10-16T11:04:09;18.30;99.90
6538;DHT22;3302;52.508;13.454;2022-10-16T11:06:55;18.30;99.90
6538;DHT22;3302;52.508;13.454;2022-10-16T11:09:32;18.40;99.90
6538;DHT22;3302;52.508;13.454;2022-10-16T11:12:05;18.60;99.90
6538;DHT22;3302;52.508;13.454;2022-10-16T11:15:03;18.80;99.90
6538;DHT22;3302;52.508;13.454;2022-10-16T11:17:31;18.60;99.90
6538;DHT22;3302;52.508;13.454;2022-10-16T11:20:16;18.60;99.90
6538;DHT22;3302;52.508;13.454;2022-10-16T11:22:53;18.40;99.90
6538;DHT22;3302;52.508;13.454;2022-10-16T11:30:31;18.50;99.90
6538;DHT22;3302;52.508;13.454;2022-10-16T11:38:29;18.60;99.90
6538;DHT22;3302;52.508;13.454;2022-10-16T11:41:00;18.60;99.90
6538;DHT22;3302;52.508;13.454;2022-10-16T11:43:37;18.70;99.90
6538;DHT22;3302;52.508;13.454;2022-10-16T11:46:12;19.00;99.90
6538;DHT22;3302;52.508;13.454;2022-10-16T11:49:26;18.80;99.90
6538;DHT22;3302;52.508;13.454;2022-10-16T11:51:38;18.90;99.90
6538;DHT22;3302;52.508;13.454;2022-10-16T11:54:30;18.80;99.20
6538;DHT22;3302;52.508;13.454;2022-10-16T11:57:02;18.70;98.40
6538;DHT22;3302;52.508;13.454;2022-10-16T12:00:05;18.70;98.60
6538;DHT22;3302;52.508;13.454;2022-10-16T12:02:43;18.70;99.00
6538;DHT22;3302;52.508;13.454;2022-10-16T12:05:28;18.70;99.40
6538;DHT22;3302;52.508;13.454;2022-10-16T12:08:09;18.60;99.40
6538;DHT22;3302;52.508;13.454;2022-10-16T12:10:37;18.60;99.10
6538;DHT22;3302;52.508;13.454;2022-10-16T12:13:05;18.70;99.20
6538;DHT22;3302;52.508;13.454;2022-10-16T12:15:50;18.70;98.90
6538;DHT22;3302;52.508;13.454;2022-10-16T12:18:23;18.70;98.10
6538;DHT22;3302;52.508;13.454;2022-10-16T12:20:57;18.80;97.10
6538;DHT22;3302;52.508;13.454;2022-10-16T12:23:31;18.90;97.00
6538;DHT22;3302;52.508;13.454;2022-10-16T12:25:58;18.90;96.50
6538;DHT22;3302;52.508;13.454;2022-10-16T12:28:32;19.00;96.50
6538;DHT22;3302;52.508;13.454;2022-10-16T12:31:03;19.10;96.10
6538;DHT22;3302;52.508;13.454;2022-10-16T12:33:33;19.10;95.40
6538;DHT22;3302;52.508;13.454;2022-10-16T12:36:02;19.00;95.20
6538;DHT22;3302;52.508;13.454;2022-10-16T12:38:37;19.10;94.90
6538;DHT22;3302;52.508;13.454;2022-10-16T12:41:08;19.10;94.90
6538;DHT22;3302;52.508;13.454;2022-10-16T12:43:42;19.20;94.90
6538;DHT22;3302;52.508;13.454;2022-10-16T12:48:33;19.30;94.90
6538;DHT22;3302;52.508;13.454;2022-10-16T12:53:35;19.30;94.80
6538;DHT22;3302;52.508;13.454;2022-10-16T12:56:27;19.20;94.70
6538;DHT22;3302;52.508;13.454;2022-10-16T13:13:36;19.50;93.60
6538;DHT22;3302;52.508;13.454;2022-10-16T13:16:16;19.30;93.70
6538;DHT22;3302;52.508;13.454;2022-10-16T13:21:34;19.40;93.30
6538;DHT22;3302;52.508;13.454;2022-10-16T13:24:08;19.40;93.00
6538;DHT22;3302;52.508;13.454;2022-10-16T13:27:12;19.40;93.10
6538;DHT22;3302;52.508;13.454;2022-10-16T13:29:41;19.40;93.30
6538;DHT22;3302;52.508;13.454;2022-10-16T13:32:10;19.40;93.40
6538;DHT22;3302;52.508;13.454;2022-10-16T13:34:46;19.50;93.00
6538;DHT22;3302;52.508;13.454;2022-10-16T13:37:23;19.50;93.10
6538;DHT22;3302;52.508;13.454;2022-10-16T13:39:49;19.50;93.20
6538;DHT22;3302;52.508;13.454;2022-10-16T13:42:29;19.60;93.00
6538;DHT22;3302;52.508;13.454;2022-10-16T13:44:56;19.60;92.90
6538;DHT22;3302;52.508;13.454;2022-10-16T13:47:24;19.50;92.70
6538;DHT22;3302;52.508;13.454;2022-10-16T13:50:06;19.50;92.70
6538;DHT22;3302;52.508;13.454;2022-10-16T13:52:32;19.40;93.00
6538;DHT22;3302;52.508;13.454;2022-10-16T13:54:58;19.40;93.00
6538;DHT22;3302;52.508;13.454;2022-10-16T13:57:24;19.40;93.10
6538;DHT22;3302;52.508;13.454;2022-10-16T13:59:51;19.40;93.30
6538;DHT22;3302;52.508;13.454;2022-10-16T14:02:22;19.40;93.30
6538;DHT22;3302;52.508;13.454;2022-10-16T14:04:51;19.30;93.50
6538;DHT22;3302;52.508;13.454;2022-10-16T14:07:29;19.30;93.70
6538;DHT22;3302;52.508;13.454;2022-10-16T14:10:04;19.30;93.60
6538;DHT22;3302;52.508;13.454;2022-10-16T14:12:31;19.30;93.50
6538;DHT22;3302;52.508;13.454;2022-10-16T14:14:58;19.20;93.30
6538;DHT22;3302;52.508;13.454;2022-10-16T14:17:28;19.30;93.50
6538;DHT22;3302;52.508;13.454;2022-10-16T14:19:57;19.30;93.50
6538;DHT22;3302;52.508;13.454;2022-10-16T14:22:29;19.40;93.30
6538;DHT22;3302;52.508;13.454;2022-10-16T14:24:55;19.40;93.50
6538;DHT22;3302;52.508;13.454;2022-10-16T14:27:36;19.50;93.50
6538;DHT22;3302;52.508;13.454;2022-10-16T14:30:16;19.50;93.80
6538;DHT22;3302;52.508;13.454;2022-10-16T14:32:57;19.40;93.50
6538;DHT22;3302;52.508;13.454;2022-10-16T14:35:29;19.40;93.60
6538;DHT22;3302;52.508;13.454;2022-10-16T14:37:56;19.50;93.40
6538;DHT22;3302;52.508;13.454;2022-10-16T14:40:28;19.60;93.30
6538;DHT22;3302;52.508;13.454;2022-10-16T14:42:55;19.70;93.00
6538;DHT22;3302;52.508;13.454;2022-10-16T14:45:24;19.70;92.90
6538;DHT22;3302;52.508;13.454;2022-10-16T14:47:54;20.00;93.00
6538;DHT22;3302;52.508;13.454;2022-10-16T14:50:21;20.20;92.30
6538;DHT22;3302;52.508;13.454;2022-10-16T14:52:47;20.60;91.90
6538;DHT22;3302;52.508;13.454;2022-10-16T14:55:13;20.30;91.30
6538;DHT22;3302;52.508;13.454;2022-10-16T14:57:39;20.30;90.70
6538;DHT22;3302;52.508;13.454;2022-10-16T15:00:23;20.20;90.50
6538;DHT22;3302;52.508;13.454;2022-10-16T15:02:49;20.20;90.90
6538;DHT22;3302;52.508;13.454;2022-10-16T15:05:24;20.10;90.90
6538;DHT22;3302;52.508;13.454;2022-10-16T15:07:50;20.20;90.90
6538;DHT22;3302;52.508;13.454;2022-10-16T15:10:17;20.00;91.40
6538;DHT22;3302;52.508;13.454;2022-10-16T15:12:46;19.90;91.60
6538;DHT22;3302;52.508;13.454;2022-10-16T15:15:27;19.80;91.90
6538;DHT22;3302;52.508;13.454;2022-10-16T15:17:55;19.70;91.90
6538;DHT22;3302;52.508;13.454;2022-10-16T15:20:23;19.60;91.90
6538;DHT22;3302;52.508;13.454;2022-10-16T15:22:49;19.60;92.30
6538;DHT22;3302;52.508;13.454;2022-10-16T15:28:08;19.60;92.70
6538;DHT22;3302;52.508;13.454;2022-10-16T15:30:35;19.50;92.30
6538;DHT22;3302;52.508;13.454;2022-10-16T15:33:02;19.40;92.20
6538;DHT22;3302;52.508;13.454;2022-10-16T15:35:27;19.40;92.50
6538;DHT22;3302;52.508;13.454;2022-10-16T15:37:53;19.20;92.30
6538;DHT22;3302;52.508;13.454;2022-10-16T15:40:20;19.20;92.30
6538;DHT22;3302;52.508;13.454;2022-10-16T15:42:46;19.20;92.40
6538;DHT22;3302;52.508;13.454;2022-10-16T15:45:12;19.20;92.50
6538;DHT22;3302;52.508;13.454;2022-10-16T15:47:40;19.10;92.10
6538;DHT22;3302;52.508;13.454;2022-10-16T15:50:06;19.10;92.30
6538;DHT22;3302;52.508;13.454;2022-10-16T15:52:32;19.00;92.40
6538;DHT22;3302;52.508;13.454;2022-10-16T15:54:58;18.90;92.30
6538;DHT22;3302;52.508;13.454;2022-10-16T15:57:24;18.90;92.30
6538;DHT22;3302;52.508;13.454;2022-10-16T15:59:50;18.80;92.30
6538;DHT22;3302;52.508;13.454;2022-10-16T16:02:16;18.80;92.70
6538;DHT22;3302;52.508;13.454;2022-10-16T16:04:42;18.70;92.40
6538;DHT22;3302;52.508;13.454;2022-10-16T16:07:07;18.70;92.60
6538;DHT22;3302;52.508;13.454;2022-10-16T16:09:33;18.70;92.80
6538;DHT22;3302;52.508;13.454;2022-10-16T16:11:59;18.60;92.50
6538;DHT22;3302;52.508;13.454;2022-10-16T16:14:27;18.60;93.10
6538;DHT22;3302;52.508;13.454;2022-10-16T16:16:57;18.50;92.90
6538;DHT22;3302;52.508;13.454;2022-10-16T16:19:23;18.50;92.80
6538;DHT22;3302;52.508;13.454;2022-10-16T16:21:49;18.40;93.50
6538;DHT22;3302;52.508;13.454;2022-10-16T16:24:15;18.40;93.20
6538;DHT22;3302;52.508;13.454;2022-10-16T16:26:41;18.30;93.10
6538;DHT22;3302;52.508;13.454;2022-10-16T16:29:13;18.30;93.10
6538;DHT22;3302;52.508;13.454;2022-10-16T16:31:40;18.30;93.50
6538;DHT22;3302;52.508;13.454;2022-10-16T16:34:06;18.20;93.40
6538;DHT22;3302;52.508;13.454;2022-10-16T16:36:32;18.10;93.60
6538;DHT22;3302;52.508;13.454;2022-10-16T16:38:58;18.10;93.60
6538;DHT22;3302;52.508;13.454;2022-10-16T16:41:27;18.10;93.50
6538;DHT22;3302;52.508;13.454;2022-10-16T16:43:54;18.00;93.60
6538;DHT22;3302;52.508;13.454;2022-10-16T16:46:20;18.00;93.80
6538;DHT22;3302;52.508;13.454;2022-10-16T16:48:47;18.00;93.80
6538;DHT22;3302;52.508;13.454;2022-10-16T16:51:17;18.00;94.80
6538;DHT22;3302;52.508;13.454;2022-10-16T16:53:50;17.90;93.90
6538;DHT22;3302;52.508;13.454;2022-10-16T16:56:17;17.90;93.50
6538;DHT22;3302;52.508;13.454;2022-10-16T16:58:47;17.90;93.30
6538;DHT22;3302;52.508;13.454;2022-10-16T17:01:14;17.80;93.40
6538;DHT22;3302;52.508;13.454;2022-10-16T17:03:42;17.80;93.70
6538;DHT22;3302;52.508;13.454;2022-10-16T17:06:10;17.80;93.70
6538;DHT22;3302;52.508;13.454;2022-10-16T17:08:37;17.70;93.50
6538;DHT22;3302;52.508;13.454;2022-10-16T17:11:04;17.70;94.00
6538;DHT22;3302;52.508;13.454;2022-10-16T17:13:33;17.70;94.00
6538;DHT22;3302;52.508;13.454;2022-10-16T17:16:04;17.70;94.00
6538;DHT22;3302;52.508;13.454;2022-10-16T17:18:31;17.60;94.40
6538;DHT22;3302;52.508;13.454;2022-10-16T17:21:05;17.60;93.60
6538;DHT22;3302;52.508;13.454;2022-10-16T17:23:32;17.60;93.90
6538;DHT22;3302;52.508;13.454;2022-10-16T17:26:06;17.50;94.10
6538;DHT22;3302;52.508;13.454;2022-10-16T17:28:32;17.50;93.90
6538;DHT22;3302;52.508;13.454;2022-10-16T17:31:17;17.40;94.20
6538;DHT22;3302;52.508;13.454;2022-10-16T17:33:44;17.30;94.30
6538;DHT22;3302;52.508;13.454;2022-10-16T17:36:10;17.30;94.40
6538;DHT22;3302;52.508;13.454;2022-10-16T17:38:36;17.30;94.50
6538;DHT22;3302;52.508;13.454;2022-10-16T17:41:17;17.20;94.60
6538;DHT22;3302;52.508;13.454;2022-10-16T17:43:44;17.10;94.90